sensor_id;sensor_type;location;lat;lon;timestamp;temperature;humidity
13440;DHT22;6792;57.698;11.946;2022-08-30T00:02:20;20.90;44.10
13440;DHT22;6792;57.698;11.946;2022-08-30T00:04:48;20.80;44.80
13440;DHT22;6792;57.698;11.946;2022-08-30T00:07:17;20.80;44.80
13440;DHT22;6792;57.698;11.946;2022-08-30T00:09:46;20.80;44.80
13440;DHT22;6792;57.698;11.946;2022-08-30T00:12:15;20.80;44.90
13440;DHT22;6792;57.698;11.946;2022-08-30T00:14:44;20.80;45.00
13440;DHT22;6792;57.698;11.946;2022-08-30T00:17:13;20.80;45.00
13440;DHT22;6792;57.698;11.946;2022-08-30T00:19:42;20.80;45.00
13440;DHT22;6792;57.698;11.946;2022-08-30T00:22:11;20.70;45.00
13440;DHT22;6792;57.698;11.946;2022-08-30T00:24:40;20.70;45.40
13440;DHT22;6792;57.698;11.946;2022-08-30T00:27:09;20.70;45.00
13440;DHT22;6792;57.698;11.946;2022-08-30T00:29:38;20.70;45.00
13440;DHT22;6792;57.698;11.946;2022-08-30T00:32:07;20.60;45.10
13440;DHT22;6792;57.698;11.946;2022-08-30T00:34:39;20.60;45.10
13440;DHT22;6792;57.698;11.946;2022-08-30T00:37:08;20.60;45.20
13440;DHT22;6792;57.698;11.946;2022-08-30T00:39:37;20.60;45.20
13440;DHT22;6792;57.698;11.946;2022-08-30T00:42:07;20.50;45.20
13440;DHT22;6792;57.698;11.946;2022-08-30T00:44:36;20.50;45.30
13440;DHT22;6792;57.698;11.946;2022-08-30T00:47:05;20.50;45.20
13440;DHT22;6792;57.698;11.946;2022-08-30T00:49:35;20.40;45.10
13440;DHT22;6792;57.698;11.946;2022-08-30T00:52:06;20.40;45.20
13440;DHT22;6792;57.698;11.946;2022-08-30T00:54:37;20.40;45.10
13440;DHT22;6792;57.698;11.946;2022-08-30T00:57:08;20.40;45.10
13440;DHT22;6792;57.698;11.946;2022-08-30T00:59:38;20.30;45.10
13440;DHT22;6792;57.698;11.946;2022-08-30T01:02:07;20.30;45.20
13440;DHT22;6792;57.698;11.946;2022-08-30T01:04:38;20.40;45.20
13440;DHT22;6792;57.698;11.946;2022-08-30T01:07:07;20.30;45.10
13440;DHT22;6792;57.698;11.946;2022-08-30T01:09:36;20.30;45.10
13440;DHT22;6792;57.698;11.946;2022-08-30T01:12:06;20.30;45.10
13440;DHT22;6792;57.698;11.946;2022-08-30T01:14:36;20.30;45.10
13440;DHT22;6792;57.698;11.946;2022-08-30T01:17:06;20.30;45.20
13440;DHT22;6792;57.698;11.946;2022-08-30T01:19:40;20.30;45.20
13440;DHT22;6792;57.698;11.946;2022-08-30T01:22:14;20.20;45.20
13440;DHT22;6792;57.698;11.946;2022-08-30T01:24:41;20.20;45.20
13440;DHT22;6792;57.698;11.946;2022-08-30T01:27:14;20.20;45.20
13440;DHT22;6792;57.698;11.946;2022-08-30T01:29:44;20.10;45.30
13440;DHT22;6792;57.698;11.946;2022-08-30T01:32:17;20.20;45.30
13440;DHT22;6792;57.698;11.946;2022-08-30T01:34:47;20.10;45.20
13440;DHT22;6792;57.698;11.946;2022-08-30T01:37:19;20.10;45.30
13440;DHT22;6792;57.698;11.946;2022-08-30T01:39:48;20.10;45.30
13440;DHT22;6792;57.698;11.946;2022-08-30T01:42:17;20.10;45.40
13440;DHT22;6792;57.698;11.946;2022-08-30T01:44:46;20.10;45.30
13440;DHT22;6792;57.698;11.946;2022-08-30T01:47:16;20.10;45.40
13440;DHT22;6792;57.698;11.946;2022-08-30T01:49:46;20.10;45.40
13440;DHT22;6792;57.698;11.946;2022-08-30T01:52:17;20.10;44.90
13440;DHT22;6792;57.698;11.946;2022-08-30T01:54:46;20.10;44.90
13440;DHT22;6792;57.698;11.946;2022-08-30T01:57:17;20.10;45.40
13440;DHT22;6792;57.698;11.946;2022-08-30T01:59:48;20.10;45.50
13440;DHT22;6792;57.698;11.946;2022-08-30T02:02:18;20.10;45.50
13440;DHT22;6792;57.698;11.946;2022-08-30T02:04:48;20.00;45.40
13440;DHT22;6792;57.698;11.946;2022-08-30T02:07:18;20.00;45.40
13440;DHT22;6792;57.698;11.946;2022-08-30T02:09:47;20.00;45.50
13440;DHT22;6792;57.698;11.946;2022-08-30T02:12:16;20.00;45.50
13440;DHT22;6792;57.698;11.946;2022-08-30T02:14:45;20.00;46.00
13440;DHT22;6792;57.698;11.946;2022-08-30T02:17:14;20.00;45.40
13440;DHT22;6792;57.698;11.946;2022-08-30T02:19:44;20.00;45.90
13440;DHT22;6792;57.698;11.946;2022-08-30T02:22:13;20.00;45.40
13440;DHT22;6792;57.698;11.946;2022-08-30T02:24:42;20.00;45.40
13440;DHT22;6792;57.698;11.946;2022-08-30T02:27:11;20.00;45.40
13440;DHT22;6792;57.698;11.946;2022-08-30T02:29:40;20.00;45.40
13440;DHT22;6792;57.698;11.946;2022-08-30T02:32:09;20.00;45.50
13440;DHT22;6792;57.698;11.946;2022-08-30T02:34:38;20.00;45.50
13440;DHT22;6792;57.698;11.946;2022-08-30T02:37:07;20.00;45.60
13440;DHT22;6792;57.698;11.946;2022-08-30T02:39:36;20.00;45.70
13440;DHT22;6792;57.698;11.946;2022-08-30T02:42:05;20.00;45.70
13440;DHT22;6792;57.698;11.946;2022-08-30T02:44:35;20.00;45.70
13440;DHT22;6792;57.698;11.946;2022-08-30T02:47:04;20.00;45.70
13440;DHT22;6792;57.698;11.946;2022-08-30T02:49:33;20.00;45.80
13440;DHT22;6792;57.698;11.946;2022-08-30T02:52:03;20.00;45.80
13440;DHT22;6792;57.698;11.946;2022-08-30T02:54:33;20.00;45.80
13440;DHT22;6792;57.698;11.946;2022-08-30T02:57:02;20.00;45.80
13440;DHT22;6792;57.698;11.946;2022-08-30T02:59:32;20.00;45.90
13440;DHT22;6792;57.698;11.946;2022-08-30T03:02:05;19.90;46.50
13440;DHT22;6792;57.698;11.946;2022-08-30T03:04:33;19.90;45.90
13440;DHT22;6792;57.698;11.946;2022-08-30T03:07:03;20.00;46.00
13440;DHT22;6792;57.698;11.946;2022-08-30T03:09:31;20.00;45.40
13440;DHT22;6792;57.698;11.946;2022-08-30T03:12:00;20.00;46.00
13440;DHT22;6792;57.698;11.946;2022-08-30T03:14:30;20.00;46.00
13440;DHT22;6792;57.698;11.946;2022-08-30T03:17:00;20.00;46.00
13440;DHT22;6792;57.698;11.946;2022-08-30T03:19:29;20.00;46.10
13440;DHT22;6792;57.698;11.946;2022-08-30T03:21:58;19.90;46.10
13440;DHT22;6792;57.698;11.946;2022-08-30T03:24:27;19.90;46.20
13440;DHT22;6792;57.698;11.946;2022-08-30T03:26:56;19.90;46.20
13440;DHT22;6792;57.698;11.946;2022-08-30T03:29:25;19.90;46.30
13440;DHT22;6792;57.698;11.946;2022-08-30T03:31:56;19.90;46.30
13440;DHT22;6792;57.698;11.946;2022-08-30T03:34:25;19.90;46.30
13440;DHT22;6792;57.698;11.946;2022-08-30T03:36:55;19.90;46.40
13440;DHT22;6792;57.698;11.946;2022-08-30T03:39:24;19.90;46.40
13440;DHT22;6792;57.698;11.946;2022-08-30T03:41:53;19.90;46.40
13440;DHT22;6792;57.698;11.946;2022-08-30T03:44:22;19.80;46.40
13440;DHT22;6792;57.698;11.946;2022-08-30T03:46:51;19.80;46.40
13440;DHT22;6792;57.698;11.946;2022-08-30T03:49:21;19.80;46.30
13440;DHT22;6792;57.698;11.946;2022-08-30T03:51:51;19.80;46.30
13440;DHT22;6792;57.698;11.946;2022-08-30T03:54:19;19.80;46.30
13440;DHT22;6792;57.698;11.946;2022-08-30T03:56:49;19.70;46.20
13440;DHT22;6792;57.698;11.946;2022-08-30T03:59:18;19.70;46.30
13440;DHT22;6792;57.698;11.946;2022-08-30T04:01:47;19.70;46.30
13440;DHT22;6792;57.698;11.946;2022-08-30T04:04:16;19.70;46.40
13440;DHT22;6792;57.698;11.946;2022-08-30T04:06:45;19.70;46.40
13440;DHT22;6792;57.698;11.946;2022-08-30T04:09:14;19.70;46.30
13440;DHT22;6792;57.698;11.946;2022-08-30T04:11:43;19.60;46.30
13440;DHT22;6792;57.698;11.946;2022-08-30T04:14:12;19.60;46.30
13440;DHT22;6792;57.698;11.946;2022-08-30T04:16:41;19.60;46.40
13440;DHT22;6792;57.698;11.946;2022-08-30T04:19:10;19.60;46.40
13440;DHT22;6792;57.698;11.946;2022-08-30T04:21:39;19.60;46.50
13440;DHT22;6792;57.698;11.946;2022-08-30T04:24:19;19.50;46.50
13440;DHT22;6792;57.698;11.946;2022-08-30T04:26:51;19.50;46.00
13440;DHT22;6792;57.698;11.946;2022-08-30T04:29:19;19.50;46.60
13440;DHT22;6792;57.698;11.946;2022-08-30T04:31:48;19.50;46.60
13440;DHT22;6792;57.698;11.946;2022-08-30T04:34:17;19.40;46.50
13440;DHT22;6792;57.698;11.946;2022-08-30T04:36:48;19.40;46.60
13440;DHT22;6792;57.698;11.946;2022-08-30T04:39:17;19.50;46.60
13440;DHT22;6792;57.698;11.946;2022-08-30T04:41:46;19.40;46.70
13440;DHT22;6792;57.698;11.946;2022-08-30T04:44:15;19.40;46.80
13440;DHT22;6792;57.698;11.946;2022-08-30T04:46:44;19.40;46.70
13440;DHT22;6792;57.698;11.946;2022-08-30T04:49:13;19.40;46.80
13440;DHT22;6792;57.698;11.946;2022-08-30T04:51:42;19.40;46.80
13440;DHT22;6792;57.698;11.946;2022-08-30T04:54:11;19.40;46.80
13440;DHT22;6792;57.698;11.946;2022-08-30T04:56:40;19.40;46.90
13440;DHT22;6792;57.698;11.946;2022-08-30T04:59:10;19.30;46.90
13440;DHT22;6792;57.698;11.946;2022-08-30T05:01:39;19.30;47.00
13440;DHT22;6792;57.698;11.946;2022-08-30T05:04:08;19.20;47.10
13440;DHT22;6792;57.698;11.946;2022-08-30T05:06:37;19.20;47.10
13440;DHT22;6792;57.698;11.946;2022-08-30T05:09:06;19.20;47.10
13440;DHT22;6792;57.698;11.946;2022-08-30T05:11:35;19.20;47.20
13440;DHT22;6792;57.698;11.946;2022-08-30T05:14:05;19.20;47.20
13440;DHT22;6792;57.698;11.946;2022-08-30T05:16:34;19.10;47.20
13440;DHT22;6792;57.698;11.946;2022-08-30T05:19:03;19.10;47.30
13440;DHT22;6792;57.698;11.946;2022-08-30T05:21:32;19.10;47.30
13440;DHT22;6792;57.698;11.946;2022-08-30T05:24:01;19.10;47.30
13440;DHT22;6792;57.698;11.946;2022-08-30T05:26:32;19.10;47.40
13440;DHT22;6792;57.698;11.946;2022-08-30T05:29:01;19.10;47.30
13440;DHT22;6792;57.698;11.946;2022-08-30T05:31:32;19.10;47.40
13440;DHT22;6792;57.698;11.946;2022-08-30T05:34:02;19.10;47.50
13440;DHT22;6792;57.698;11.946;2022-08-30T05:36:33;19.10;47.50
13440;DHT22;6792;57.698;11.946;2022-08-30T05:39:03;19.10;47.50
13440;DHT22;6792;57.698;11.946;2022-08-30T05:41:33;19.10;47.50
13440;DHT22;6792;57.698;11.946;2022-08-30T05:44:03;19.10;47.60
13440;DHT22;6792;57.698;11.946;2022-08-30T05:46:32;19.10;47.60
13440;DHT22;6792;57.698;11.946;2022-08-30T05:49:03;19.10;47.60
13440;DHT22;6792;57.698;11.946;2022-08-30T05:51:33;19.10;47.70
13440;DHT22;6792;57.698;11.946;2022-08-30T05:54:04;19.10;47.70
13440;DHT22;6792;57.698;11.946;2022-08-30T05:56:35;19.10;47.80
13440;DHT22;6792;57.698;11.946;2022-08-30T05:59:06;19.10;47.80
13440;DHT22;6792;57.698;11.946;2022-08-30T06:01:37;19.10;47.80
13440;DHT22;6792;57.698;11.946;2022-08-30T06:04:08;19.10;47.30
13440;DHT22;6792;57.698;11.946;2022-08-30T06:06:40;19.20;48.00
13440;DHT22;6792;57.698;11.946;2022-08-30T06:09:11;19.30;48.00
13440;DHT22;6792;57.698;11.946;2022-08-30T06:11:41;19.30;48.00
13440;DHT22;6792;57.698;11.946;2022-08-30T06:14:10;19.30;48.10
13440;DHT22;6792;57.698;11.946;2022-08-30T06:16:39;19.30;48.10
13440;DHT22;6792;57.698;11.946;2022-08-30T06:19:10;19.30;48.10
13440;DHT22;6792;57.698;11.946;2022-08-30T06:21:40;19.40;48.20
13440;DHT22;6792;57.698;11.946;2022-08-30T06:24:11;19.40;48.20
13440;DHT22;6792;57.698;11.946;2022-08-30T06:29:21;19.50;47.80
13440;DHT22;6792;57.698;11.946;2022-08-30T06:31:50;19.50;48.30
13440;DHT22;6792;57.698;11.946;2022-08-30T06:34:19;19.60;48.30
13440;DHT22;6792;57.698;11.946;2022-08-30T06:36:48;19.60;48.30
13440;DHT22;6792;57.698;11.946;2022-08-30T06:39:17;19.70;48.40
13440;DHT22;6792;57.698;11.946;2022-08-30T06:41:46;19.80;48.40
13440;DHT22;6792;57.698;11.946;2022-08-30T06:44:15;19.90;48.40
13440;DHT22;6792;57.698;11.946;2022-08-30T06:46:44;19.90;48.30
13440;DHT22;6792;57.698;11.946;2022-08-30T06:49:13;20.00;48.40
13440;DHT22;6792;57.698;11.946;2022-08-30T06:51:42;20.10;48.30
13440;DHT22;6792;57.698;11.946;2022-08-30T06:54:11;20.10;48.30
13440;DHT22;6792;57.698;11.946;2022-08-30T06:56:41;20.20;48.30
13440;DHT22;6792;57.698;11.946;2022-08-30T06:59:09;20.30;47.80
13440;DHT22;6792;57.698;11.946;2022-08-30T07:01:39;20.40;48.30
13440;DHT22;6792;57.698;11.946;2022-08-30T07:04:08;20.50;48.30
13440;DHT22;6792;57.698;11.946;2022-08-30T07:06:37;20.60;48.30
13440;DHT22;6792;57.698;11.946;2022-08-30T07:09:07;20.70;48.30
13440;DHT22;6792;57.698;11.946;2022-08-30T07:11:37;20.70;48.20
13440;DHT22;6792;57.698;11.946;2022-08-30T07:14:07;20.80;48.20
13440;DHT22;6792;57.698;11.946;2022-08-30T07:16:36;20.90;48.20
13440;DHT22;6792;57.698;11.946;2022-08-30T07:19:06;20.90;48.80
13440;DHT22;6792;57.698;11.946;2022-08-30T07:21:36;21.00;48.30
13440;DHT22;6792;57.698;11.946;2022-08-30T07:24:08;21.10;48.30
13440;DHT22;6792;57.698;11.946;2022-08-30T07:26:39;21.10;48.20
13440;DHT22;6792;57.698;11.946;2022-08-30T07:29:09;21.20;48.20
13440;DHT22;6792;57.698;11.946;2022-08-30T07:31:38;21.20;48.20
13440;DHT22;6792;57.698;11.946;2022-08-30T07:34:08;21.30;48.20
13440;DHT22;6792;57.698;11.946;2022-08-30T07:36:38;21.40;48.30
13440;DHT22;6792;57.698;11.946;2022-08-30T07:39:07;21.50;48.30
13440;DHT22;6792;57.698;11.946;2022-08-30T07:41:37;21.50;48.30
13440;DHT22;6792;57.698;11.946;2022-08-30T07:44:07;21.60;48.20
13440;DHT22;6792;57.698;11.946;2022-08-30T07:46:37;21.70;48.20
13440;DHT22;6792;57.698;11.946;2022-08-30T07:49:06;21.80;48.10
13440;DHT22;6792;57.698;11.946;2022-08-30T07:51:36;21.80;48.00
13440;DHT22;6792;57.698;11.946;2022-08-30T07:54:06;21.90;48.00
13440;DHT22;6792;57.698;11.946;2022-08-30T07:56:35;21.90;48.20
13440;DHT22;6792;57.698;11.946;2022-08-30T07:59:04;22.00;47.80
13440;DHT22;6792;57.698;11.946;2022-08-30T08:01:33;22.00;47.80
13440;DHT22;6792;57.698;11.946;2022-08-30T08:04:03;22.10;47.70
13440;DHT22;6792;57.698;11.946;2022-08-30T08:06:32;22.20;47.60
13440;DHT22;6792;57.698;11.946;2022-08-30T08:09:02;22.20;47.50
13440;DHT22;6792;57.698;11.946;2022-08-30T08:11:33;22.30;47.40
13440;DHT22;6792;57.698;11.946;2022-08-30T08:14:02;22.40;47.40
13440;DHT22;6792;57.698;11.946;2022-08-30T08:16:33;22.40;47.20
13440;DHT22;6792;57.698;11.946;2022-08-30T08:19:03;22.50;46.60
13440;DHT22;6792;57.698;11.946;2022-08-30T08:21:34;22.50;47.00
13440;DHT22;6792;57.698;11.946;2022-08-30T08:24:04;22.60;46.80
13440;DHT22;6792;57.698;11.946;2022-08-30T08:26:35;22.70;46.70
13440;DHT22;6792;57.698;11.946;2022-08-30T08:29:05;22.70;46.50
13440;DHT22;6792;57.698;11.946;2022-08-30T08:31:35;22.70;46.30
13440;DHT22;6792;57.698;11.946;2022-08-30T08:34:04;22.70;46.20
13440;DHT22;6792;57.698;11.946;2022-08-30T08:36:34;22.80;46.10
13440;DHT22;6792;57.698;11.946;2022-08-30T08:39:04;22.90;46.00
13440;DHT22;6792;57.698;11.946;2022-08-30T08:41:42;22.90;45.70
13440;DHT22;6792;57.698;11.946;2022-08-30T08:44:14;23.00;45.60
13440;DHT22;6792;57.698;11.946;2022-08-30T08:46:48;23.10;45.40
13440;DHT22;6792;57.698;11.946;2022-08-30T08:49:17;23.10;45.20
13440;DHT22;6792;57.698;11.946;2022-08-30T08:51:46;23.20;45.00
13440;DHT22;6792;57.698;11.946;2022-08-30T08:54:35;23.20;44.70
13440;DHT22;6792;57.698;11.946;2022-08-30T08:57:05;23.20;44.20
13440;DHT22;6792;57.698;11.946;2022-08-30T08:59:35;23.20;44.50
13440;DHT22;6792;57.698;11.946;2022-08-30T09:02:08;23.30;44.40
13440;DHT22;6792;57.698;11.946;2022-08-30T09:04:37;23.30;44.20
13440;DHT22;6792;57.698;11.946;2022-08-30T09:07:10;23.30;44.10
13440;DHT22;6792;57.698;11.946;2022-08-30T09:09:41;23.40;44.00
13440;DHT22;6792;57.698;11.946;2022-08-30T09:12:12;23.40;43.40
13440;DHT22;6792;57.698;11.946;2022-08-30T09:14:43;23.40;43.70
13440;DHT22;6792;57.698;11.946;2022-08-30T09:17:16;23.40;43.50
13440;DHT22;6792;57.698;11.946;2022-08-30T09:19:55;23.40;43.30
13440;DHT22;6792;57.698;11.946;2022-08-30T09:22:21;23.40;43.20
13440;DHT22;6792;57.698;11.946;2022-08-30T09:24:54;23.50;43.10
13440;DHT22;6792;57.698;11.946;2022-08-30T09:27:27;23.50;43.00
13440;DHT22;6792;57.698;11.946;2022-08-30T09:30:00;23.50;42.90
13440;DHT22;6792;57.698;11.946;2022-08-30T09:32:33;23.60;42.60
13440;DHT22;6792;57.698;11.946;2022-08-30T09:35:05;23.50;42.30
13440;DHT22;6792;57.698;11.946;2022-08-30T09:37:45;23.50;42.30
13440;DHT22;6792;57.698;11.946;2022-08-30T09:40:20;23.60;41.50
13440;DHT22;6792;57.698;11.946;2022-08-30T09:43:03;23.60;41.40
13440;DHT22;6792;57.698;11.946;2022-08-30T09:45:36;23.60;42.00
13440;DHT22;6792;57.698;11.946;2022-08-30T09:48:28;23.60;41.90
13440;DHT22;6792;57.698;11.946;2022-08-30T09:50:57;23.70;41.80
13440;DHT22;6792;57.698;11.946;2022-08-30T09:53:29;23.70;41.70
13440;DHT22;6792;57.698;11.946;2022-08-30T09:56:04;23.70;41.60
13440;DHT22;6792;57.698;11.946;2022-08-30T09:58:41;23.70;41.60
13440;DHT22;6792;57.698;11.946;2022-08-30T10:01:14;23.80;41.60
13440;DHT22;6792;57.698;11.946;2022-08-30T10:03:48;23.70;40.90
13440;DHT22;6792;57.698;11.946;2022-08-30T10:06:23;23.70;41.30
13440;DHT22;6792;57.698;11.946;2022-08-30T10:08:59;23.70;40.70
13440;DHT22;6792;57.698;11.946;2022-08-30T10:17:24;23.90;41.10
13440;DHT22;6792;57.698;11.946;2022-08-30T10:20:04;23.90;40.90
13440;DHT22;6792;57.698;11.946;2022-08-30T10:22:35;24.00;40.90
13440;DHT22;6792;57.698;11.946;2022-08-30T10:25:08;24.10;40.90
13440;DHT22;6792;57.698;11.946;2022-08-30T10:27:42;24.10;40.80
13440;DHT22;6792;57.698;11.946;2022-08-30T10:30:13;24.20;40.20
13440;DHT22;6792;57.698;11.946;2022-08-30T10:32:47;24.20;40.70
13440;DHT22;6792;57.698;11.946;2022-08-30T10:35:20;24.20;40.60
13440;DHT22;6792;57.698;11.946;2022-08-30T10:37:52;24.20;40.40
13440;DHT22;6792;57.698;11.946;2022-08-30T10:40:28;24.20;40.30
13440;DHT22;6792;57.698;11.946;2022-08-30T10:43:22;24.20;40.10
13440;DHT22;6792;57.698;11.946;2022-08-30T10:45:54;24.10;40.30
13440;DHT22;6792;57.698;11.946;2022-08-30T10:48:27;24.10;40.20
13440;DHT22;6792;57.698;11.946;2022-08-30T10:51:00;24.10;40.10
13440;DHT22;6792;57.698;11.946;2022-08-30T10:53:33;24.10;39.90
13440;DHT22;6792;57.698;11.946;2022-08-30T10:56:06;24.20;39.80
13440;DHT22;6792;57.698;11.946;2022-08-30T10:58:36;24.20;39.70
13440;DHT22;6792;57.698;11.946;2022-08-30T11:01:17;24.20;39.70
13440;DHT22;6792;57.698;11.946;2022-08-30T11:04:28;24.30;39.40
13440;DHT22;6792;57.698;11.946;2022-08-30T11:07:03;24.30;38.50
13440;DHT22;6792;57.698;11.946;2022-08-30T11:12:24;24.20;38.40
13440;DHT22;6792;57.698;11.946;2022-08-30T11:14:54;24.30;38.90
13440;DHT22;6792;57.698;11.946;2022-08-30T11:17:27;24.40;38.80
13440;DHT22;6792;57.698;11.946;2022-08-30T11:19:58;24.40;38.60
13440;DHT22;6792;57.698;11.946;2022-08-30T11:22:30;24.50;38.40
13440;DHT22;6792;57.698;11.946;2022-08-30T11:25:08;24.50;38.30
13440;DHT22;6792;57.698;11.946;2022-08-30T11:27:47;24.60;38.10
13440;DHT22;6792;57.698;11.946;2022-08-30T11:30:50;24.70;38.00
13440;DHT22;6792;57.698;11.946;2022-08-30T11:33:42;24.80;37.40
13440;DHT22;6792;57.698;11.946;2022-08-30T11:36:58;24.80;37.40
13440;DHT22;6792;57.698;11.946;2022-08-30T11:39:01;24.80;38.10
13440;DHT22;6792;57.698;11.946;2022-08-30T11:41:34;24.90;37.40
13440;DHT22;6792;57.698;11.946;2022-08-30T11:44:25;25.00;37.80
13440;DHT22;6792;57.698;11.946;2022-08-30T11:46:56;25.20;37.60
13440;DHT22;6792;57.698;11.946;2022-08-30T11:49:41;25.20;36.70
13440;DHT22;6792;57.698;11.946;2022-08-30T11:55:38;25.30;37.20
13440;DHT22;6792;57.698;11.946;2022-08-30T11:58:15;25.40;37.10
13440;DHT22;6792;57.698;11.946;2022-08-30T12:00:46;25.50;36.80
13440;DHT22;6792;57.698;11.946;2022-08-30T12:03:30;25.50;36.50
13440;DHT22;6792;57.698;11.946;2022-08-30T12:06:01;25.60;36.30
13440;DHT22;6792;57.698;11.946;2022-08-30T12:08:49;25.70;36.40
13440;DHT22;6792;57.698;11.946;2022-08-30T12:11:52;25.80;35.60
13440;DHT22;6792;57.698;11.946;2022-08-30T12:17:29;25.80;35.50
13440;DHT22;6792;57.698;11.946;2022-08-30T12:20:25;26.00;35.00
13440;DHT22;6792;57.698;11.946;2022-08-30T12:22:54;26.10;35.70
13440;DHT22;6792;57.698;11.946;2022-08-30T12:25:28;26.30;35.50
13440;DHT22;6792;57.698;11.946;2022-08-30T12:28:14;26.40;35.30
13440;DHT22;6792;57.698;11.946;2022-08-30T12:30:44;26.60;35.10
13440;DHT22;6792;57.698;11.946;2022-08-30T12:33:22;26.70;35.00
13440;DHT22;6792;57.698;11.946;2022-08-30T12:35:44;26.90;34.70
13440;DHT22;6792;57.698;11.946;2022-08-30T12:38:17;27.00;33.90
13440;DHT22;6792;57.698;11.946;2022-08-30T12:40:54;27.10;34.10
13440;DHT22;6792;57.698;11.946;2022-08-30T12:43:28;27.10;34.00
13440;DHT22;6792;57.698;11.946;2022-08-30T12:45:59;27.30;34.00
13440;DHT22;6792;57.698;11.946;2022-08-30T12:48:33;27.40;33.80
13440;DHT22;6792;57.698;11.946;2022-08-30T12:51:04;27.50;33.80
13440;DHT22;6792;57.698;11.946;2022-08-30T12:53:36;27.70;33.70
13440;DHT22;6792;57.698;11.946;2022-08-30T12:56:10;27.90;33.40
13440;DHT22;6792;57.698;11.946;2022-08-30T12:58:42;28.20;33.30
13440;DHT22;6792;57.698;11.946;2022-08-30T13:01:17;28.40;33.10
13440;DHT22;6792;57.698;11.946;2022-08-30T13:03:59;28.70;32.10
13440;DHT22;6792;57.698;11.946;2022-08-30T13:06:42;29.10;32.60
13440;DHT22;6792;57.698;11.946;2022-08-30T13:09:24;29.60;32.30
13440;DHT22;6792;57.698;11.946;2022-08-30T13:11:54;30.60;32.20
13440;DHT22;6792;57.698;11.946;2022-08-30T13:14:33;31.90;31.80
13440;DHT22;6792;57.698;11.946;2022-08-30T13:17:19;33.20;30.90
13440;DHT22;6792;57.698;11.946;2022-08-30T13:19:43;34.70;29.10
13440;DHT22;6792;57.698;11.946;2022-08-30T13:22:31;36.00;29.40
13440;DHT22;6792;57.698;11.946;2022-08-30T13:25:01;37.30;28.40
13440;DHT22;6792;57.698;11.946;2022-08-30T13:27:31;38.30;27.30
13440;DHT22;6792;57.698;11.946;2022-08-30T13:30:09;38.90;26.60
13440;DHT22;6792;57.698;11.946;2022-08-30T13:32:39;39.60;26.00
13440;DHT22;6792;57.698;11.946;2022-08-30T13:35:11;40.20;25.50
13440;DHT22;6792;57.698;11.946;2022-08-30T13:37:40;40.90;25.00
13440;DHT22;6792;57.698;11.946;2022-08-30T13:40:12;41.60;24.40
13440;DHT22;6792;57.698;11.946;2022-08-30T13:42:41;42.00;23.90
13440;DHT22;6792;57.698;11.946;2022-08-30T13:45:11;42.40;23.60
13440;DHT22;6792;57.698;11.946;2022-08-30T13:47:44;42.90;23.20
13440;DHT22;6792;57.698;11.946;2022-08-30T13:50:14;43.50;22.80
13440;DHT22;6792;57.698;11.946;2022-08-30T13:52:42;44.10;22.50
13440;DHT22;6792;57.698;11.946;2022-08-30T13:55:12;44.50;22.00
13440;DHT22;6792;57.698;11.946;2022-08-30T13:57:41;44.80;21.50
13440;DHT22;6792;57.698;11.946;2022-08-30T14:00:15;44.50;20.80
13440;DHT22;6792;57.698;11.946;2022-08-30T14:02:45;43.70;20.60
13440;DHT22;6792;57.698;11.946;2022-08-30T14:05:15;42.70;20.50
13440;DHT22;6792;57.698;11.946;2022-08-30T14:07:44;41.60;20.60
13440;DHT22;6792;57.698;11.946;2022-08-30T14:10:14;40.60;20.80
13440;DHT22;6792;57.698;11.946;2022-08-30T14:12:44;39.70;21.10
13440;DHT22;6792;57.698;11.946;2022-08-30T14:15:13;38.70;21.30
13440;DHT22;6792;57.698;11.946;2022-08-30T14:17:42;37.90;21.60
13440;DHT22;6792;57.698;11.946;2022-08-30T14:20:11;37.20;22.00
13440;DHT22;6792;57.698;11.946;2022-08-30T14:22:40;36.50;22.20
13440;DHT22;6792;57.698;11.946;2022-08-30T14:25:10;35.90;22.50
13440;DHT22;6792;57.698;11.946;2022-08-30T14:27:41;35.40;22.80
13440;DHT22;6792;57.698;11.946;2022-08-30T14:30:11;34.90;23.10
13440;DHT22;6792;57.698;11.946;2022-08-30T14:32:41;34.40;23.60
13440;DHT22;6792;57.698;11.946;2022-08-30T14:35:10;33.90;23.70
13440;DHT22;6792;57.698;11.946;2022-08-30T14:37:39;33.50;24.00
13440;DHT22;6792;57.698;11.946;2022-08-30T14:40:09;33.10;24.20
13440;DHT22;6792;57.698;11.946;2022-08-30T14:42:38;32.70;24.50
13440;DHT22;6792;57.698;11.946;2022-08-30T14:45:09;32.40;24.80
13440;DHT22;6792;57.698;11.946;2022-08-30T14:47:38;32.20;25.00
13440;DHT22;6792;57.698;11.946;2022-08-30T14:50:09;31.80;25.10
13440;DHT22;6792;57.698;11.946;2022-08-30T14:52:38;31.60;25.40
13440;DHT22;6792;57.698;11.946;2022-08-30T14:55:09;31.30;25.70
13440;DHT22;6792;57.698;11.946;2022-08-30T14:57:39;31.00;25.80
13440;DHT22;6792;57.698;11.946;2022-08-30T15:00:11;30.70;26.00
13440;DHT22;6792;57.698;11.946;2022-08-30T15:02:40;30.50;26.20
13440;DHT22;6792;57.698;11.946;2022-08-30T15:05:09;30.20;26.50
13440;DHT22;6792;57.698;11.946;2022-08-30T15:07:38;30.00;26.70
13440;DHT22;6792;57.698;11.946;2022-08-30T15:10:09;29.80;26.90
13440;DHT22;6792;57.698;11.946;2022-08-30T15:12:40;29.50;27.00
13440;DHT22;6792;57.698;11.946;2022-08-30T15:15:10;29.40;27.20
13440;DHT22;6792;57.698;11.946;2022-08-30T15:17:39;29.20;27.40
13440;DHT22;6792;57.698;11.946;2022-08-30T15:20:10;29.00;27.50
13440;DHT22;6792;57.698;11.946;2022-08-30T15:22:39;28.80;27.80
13440;DHT22;6792;57.698;11.946;2022-08-30T15:25:09;28.70;27.40
13440;DHT22;6792;57.698;11.946;2022-08-30T15:27:38;28.60;28.10
13440;DHT22;6792;57.698;11.946;2022-08-30T15:30:10;28.50;28.20
13440;DHT22;6792;57.698;11.946;2022-08-30T15:32:39;28.40;28.40
13440;DHT22;6792;57.698;11.946;2022-08-30T15:35:09;28.30;28.50
13440;DHT22;6792;57.698;11.946;2022-08-30T15:37:38;28.20;28.60
13440;DHT22;6792;57.698;11.946;2022-08-30T15:40:09;28.10;28.70
13440;DHT22;6792;57.698;11.946;2022-08-30T15:42:38;27.90;28.30
13440;DHT22;6792;57.698;11.946;2022-08-30T15:47:51;27.80;28.90
13440;DHT22;6792;57.698;11.946;2022-08-30T15:50:20;27.60;29.00
13440;DHT22;6792;57.698;11.946;2022-08-30T15:52:49;27.50;29.10
13440;DHT22;6792;57.698;11.946;2022-08-30T15:55:18;27.40;29.20
13440;DHT22;6792;57.698;11.946;2022-08-30T15:57:47;27.40;29.40
13440;DHT22;6792;57.698;11.946;2022-08-30T16:00:17;27.30;29.40
13440;DHT22;6792;57.698;11.946;2022-08-30T16:02:47;27.30;29.50
13440;DHT22;6792;57.698;11.946;2022-08-30T16:05:17;27.20;29.60
13440;DHT22;6792;57.698;11.946;2022-08-30T16:07:47;27.20;29.70
13440;DHT22;6792;57.698;11.946;2022-08-30T16:10:17;27.10;29.70
13440;DHT22;6792;57.698;11.946;2022-08-30T16:12:46;27.10;29.80
13440;DHT22;6792;57.698;11.946;2022-08-30T16:15:15;27.10;29.90
13440;DHT22;6792;57.698;11.946;2022-08-30T16:17:43;27.00;29.90